FW3187 Weather Reports


Display with metric or nautical units.
time (UTC)temp
F
wind
direction
speed
MPH
gust
MPH
rain 1hr
in
rain 24hr
in
rain mn
in
humidity
%
barometer
mb
20260502185617 69 155 5.0 16.0 0.00 0.00 0.00 11 1018.8
20260502185117 68 155 6.0 15.0 0.00 0.00 0.00 13 1019.0
20260502185005 68 128 7.0 16.0 0.00 0.00 0.00 13 1019.1
20260502184617 68 135 6.0 15.0 0.00 0.00 0.00 11 1019.0
20260502184523 68 165 11.0 14.0 0.00 0.00 0.00 10 1019.1
20260502184117 69 129 9.0 17.0 0.00 0.00 0.00 12 1019.0
20260502184037 68 128 7.0 14.0 0.00 0.00 0.00 11 1019.3
20260502183617 69 120 10.0 18.0 0.00 0.00 0.00 13 1019.2
20260502183559 69 120 9.0 18.0 0.00 0.00 0.00 11 1019.5
20260502183138 69 109 9.0 18.0 0.00 0.00 0.00 12 1019.2
20260502183008 68 108 13.0 18.0 0.00 0.00 0.00 13 1019.1
20260502182617 69 118 9.0 15.0 0.00 0.00 0.00 13 1019.2
20260502182525 68 137 7.0 15.0 0.00 0.00 0.00 13 1019.5
20260502182117 68 122 10.0 15.0 0.00 0.00 0.00 12 1019.2
20260502182046 68 130 12.0 17.0 0.00 0.00 0.00 13 1019.5
20260502181617 68 114 10.0 17.0 0.00 0.00 0.00 12 1019.2
20260502181117 68 110 9.0 17.0 0.00 0.00 0.00 13 1019.4
20260502181055 68 101 10.0 17.0 0.00 0.00 0.00 13 1019.5
20260502180617 68 124 7.0 14.0 0.00 0.00 0.00 16 1019.6
20260502180505 68 74 10.0 14.0 0.00 0.00 0.00 15 1019.6
20260502180117 68 144 6.0 12.0 0.00 0.00 0.00 14 1019.6
20260502170506 65 258 0.0 7.0 0.00 0.00 0.00 24 1020.1
20260502170117 65 286 4.0 7.0 0.00 0.00 0.00 25 1019.7
20260502164117 63 285 6.0 9.0 0.00 0.00 0.00 28 1019.8
20260502164055 63 297 4.0 9.0 0.00 0.00 0.00 28 1020.1
20260502163617 63 284 5.0 9.0 0.00 0.00 0.00 28 1019.8
20260502163507 63 305 3.0 9.0 0.00 0.00 0.00 28 1020.1
20260502163117 63 285 6.0 10.0 0.00 0.00 0.00 27 1019.9
20260502162617 64 288 7.0 10.0 0.00 0.00 0.00 26 1019.9
20260502162523 63 300 4.0 10.0 0.00 0.00 0.00 26 1020.3
20260502162117 64 289 5.0 10.0 0.00 0.00 0.00 26 1019.9
20260502162044 63 291 5.0 10.0 0.00 0.00 0.00 26 1020.4
20260502161617 64 249 3.0 10.0 0.00 0.00 0.00 25 1019.9
20260502161605 64 302 7.0 10.0 0.00 0.00 0.00 26 1020.4
20260502161117 63 185 3.0 9.0 0.00 0.00 0.00 20 1019.9
20260502161012 63 121 3.0 8.0 0.00 0.00 0.00 23 1020.1
20260502160617 63 277 3.0 9.0 0.00 0.00 0.00 26 1019.9
20260502160532 63 153 2.0 7.0 0.00 0.00 0.00 24 1020.1
20260502160117 64 262 3.0 7.0 0.00 0.00 0.00 26 1019.9
20260502152117 60 107 9.0 13.0 0.00 0.00 0.00 22 1019.9
20260502152044 60 80 11.0 13.0 0.00 0.00 0.00 22 1020.2
20260502151617 60 113 9.0 13.0 0.00 0.00 0.00 21 1019.9
20260502151606 59 100 10.0 13.0 0.00 0.00 0.00 21 1020.3
20260502151117 60 117 9.0 14.0 0.00 0.00 0.00 22 1019.7
20260502151055 59 132 8.0 14.0 0.00 0.00 0.00 22 1020.3
20260502150617 59 116 10.0 14.0 0.00 0.00 0.00 20 1019.7
20260502150505 59 105 10.0 14.0 0.00 0.00 0.00 21 1020.2
20260502150138 59 115 10.0 15.0 0.00 0.00 0.00 22 1019.8
20260502130617 48 72 5.0 11.0 0.00 0.00 0.00 34 1019.7
20260502130510 47 67 4.0 9.0 0.00 0.00 0.00 34 1020.0
20260502130117 48 70 6.0 11.0 0.00 0.00 0.00 34 1019.7
20260502123617 46 72 6.0 12.0 0.00 0.00 0.00 35 1019.5
20260502123558 46 87 11.0 12.0 0.00 0.00 0.00 35 1020.1
20260502123117 45 69 4.0 11.0 0.00 0.00 0.00 36 1019.5
20260502123008 45 82 5.0 7.0 0.00 0.00 0.00 36 1020.1
20260502122617 45 71 4.0 8.0 0.00 0.00 0.00 37 1019.5
20260502122526 44 55 4.0 6.0 0.00 0.00 0.00 37 1019.9
20260502122117 44 74 3.0 6.0 0.00 0.00 0.00 37 1019.5
20260502121638 44 76 2.0 6.0 0.00 0.00 0.00 37 1019.7
20260502121551 44 69 2.0 6.0 0.00 0.00 0.00 37 1020.0
20260502121117 45 158 0.0 2.0 0.00 0.00 0.00 37 1019.7
20260502121108 44 158 1.0 2.0 0.00 0.00 0.00 37 1020.0
20260502120617 45 158 1.0 2.0 0.00 0.00 0.00 36 1019.7
20260502120117 45 158 1.0 2.0 0.00 0.00 0.00 37 1019.7
20260502115638 45 148 1.0 3.0 0.00 0.00 0.00 36 1019.7
20260502115607 45 158 2.0 3.0 0.00 0.00 0.00 37 1019.9
20260502115117 45 79 3.0 6.0 0.00 0.00 0.00 37 1019.7
20260502115018 45 158 1.0 6.0 0.00 0.00 0.00 37 1019.8
20260502114617 46 62 4.0 8.0 0.00 0.00 0.00 35 1019.7
20260502114117 46 65 4.0 8.0 0.00 0.00 0.00 35 1019.6
20260502114009 46 45 2.0 8.0 0.00 0.00 0.00 35 1019.9
20260502113617 46 65 5.0 10.0 0.00 0.00 0.00 36 1019.6
20260502113530 46 65 4.0 10.0 0.00 0.00 0.00 36 1020.0
20260502113117 46 65 5.0 10.0 0.00 0.00 0.00 37 1019.6
20260502113050 45 57 3.0 10.0 0.00 0.00 0.00 37 1019.9
20260502112617 45 69 4.0 9.0 0.00 0.00 0.00 37 1019.6
20260502112458 44 67 6.0 9.0 0.00 0.00 0.00 37 1019.9
20260502112117 45 57 3.0 5.0 0.00 0.00 0.00 37 1019.8
20260502112017 44 69 4.0 6.0 0.00 0.00 0.00 37 1020.1
20260502111617 44 43 4.0 9.0 0.00 0.00 0.00 38 1019.8
20260502111538 44 62 2.0 9.0 0.00 0.00 0.00 38 1020.0
20260502111117 44 48 5.0 9.0 0.00 0.00 0.00 38 1019.8
20260502111056 43 45 6.0 9.0 0.00 0.00 0.00 38 1019.9
20260502110638 44 65 4.0 7.0 0.00 0.00 0.00 38 1019.6
20260502110506 43 52 4.0 6.0 0.00 0.00 0.00 38 1019.9
20260502110117 44 82 3.0 5.0 0.00 0.00 0.00 37 1019.6
20260502110025 43 71 2.0 4.0 0.00 0.00 0.00 37 1019.9
20260502105638 44 93 2.0 4.0 0.00 0.00 0.00 37 1019.6
20260502105533 43 82 3.0 4.0 0.00 0.00 0.00 37 1019.9
20260502105117 44 98 2.0 3.0 0.00 0.00 0.00 37 1019.7
20260502105053 43 99 2.0 3.0 0.00 0.00 0.00 37 1020.0
20260502104617 44 98 2.0 2.0 0.00 0.00 0.00 38 1019.7
20260502104117 44 98 1.0 2.0 0.00 0.00 0.00 39 1019.7
20260502104106 43 98 1.0 2.0 0.00 0.00 0.00 39 1020.0
20260502103617 43 98 1.0 3.0 0.00 0.00 0.00 39 1019.7
20260502103510 43 98 0.0 3.0 0.00 0.00 0.00 38 1020.1
20260502103117 43 98 1.0 3.0 0.00 0.00 0.00 39 1019.7
20260502102617 43 98 1.0 3.0 0.00 0.00 0.00 39 1019.6
20260502102522 42 98 1.0 3.0 0.00 0.00 0.00 39 1019.9
20260502102117 43 97 1.0 3.0 0.00 0.00 0.00 39 1019.7
20260502102042 42 98 1.0 3.0 0.00 0.00 0.00 39 1019.9
20260502101617 43 92 1.0 3.0 0.00 0.00 0.00 39 1019.7
20260502101603 42 98 0.0 3.0 0.00 0.00 0.00 39 1020.0
20260502101117 42 99 2.0 3.0 0.00 0.00 0.00 39 1019.7
20260502101011 42 92 1.0 3.0 0.00 0.00 0.00 39 1019.9
20260502100617 42 124 1.0 3.0 0.00 0.00 0.00 39 1019.6
20260502100530 42 108 2.0 3.0 0.00 0.00 0.00 39 1020.0
20260502100117 42 181 0.0 2.0 0.00 0.00 0.00 40 1019.7
20260502091117 45 183 1.0 2.0 0.00 0.00 0.00 35 1019.7
20260502091007 45 188 1.0 2.0 0.00 0.00 0.00 35 1020.0
20260502090638 45 198 2.0 3.0 0.00 0.00 0.00 35 1019.5
20260502090527 45 182 1.0 3.0 0.00 0.00 0.00 35 1020.0
20260502090117 45 221 1.0 3.0 0.00 0.00 0.00 34 1019.5
20260502071117 53 100 8.0 11.0 0.00 0.00 0.00 22 1019.4
20260502071005 53 100 6.0 11.0 0.00 0.00 0.00 22 1019.6
20260502070617 52 101 8.0 11.0 0.00 0.00 0.00 24 1019.4
20260502070525 52 101 7.0 11.0 0.00 0.00 0.00 24 1019.7
20260502070138 51 100 6.0 11.0 0.00 0.00 0.00 26 1019.3
20260502065617 51 83 4.0 8.0 0.00 0.00 0.00 27 1019.4
20260502065138 51 67 5.0 8.0 0.00 0.00 0.00 27 1019.4
20260502065008 51 64 3.0 7.0 0.00 0.00 0.00 27 1019.8
20260502064617 51 67 6.0 10.0 0.00 0.00 0.00 27 1019.3
20260502064117 52 72 7.0 10.0 0.00 0.00 0.00 26 1019.3
20260502064029 51 59 3.0 10.0 0.00 0.00 0.00 26 1019.6
20260502063617 52 88 7.0 10.0 0.00 0.00 0.00 25 1019.3
20260502063550 52 75 8.0 10.0 0.00 0.00 0.00 25 1019.7
20260502063117 52 97 8.0 9.0 0.00 0.00 0.00 25 1019.4
20260502063003 51 87 5.0 9.0 0.00 0.00 0.00 25 1019.7
20260502062617 50 98 7.0 9.0 0.00 0.00 0.00 26 1019.4
20260502062117 50 94 5.0 9.0 0.00 0.00 0.00 26 1019.4
20260502062019 50 101 7.0 8.0 0.00 0.00 0.00 26 1019.6
20260502061617 50 85 3.0 8.0 0.00 0.00 0.00 26 1019.4
20260502061540 50 90 4.0 6.0 0.00 0.00 0.00 26 1019.7
20260502061117 50 87 3.0 8.0 0.00 0.00 0.00 25 1019.4
20260502061057 50 69 2.0 4.0 0.00 0.00 0.00 25 1019.6
20260502060638 51 87 3.0 8.0 0.00 0.00 0.00 25 1019.4
20260502060507 51 101 3.0 5.0 0.00 0.00 0.00 25 1019.7
20260502060117 51 75 4.0 7.0 0.00 0.00 0.00 25 1019.4
20260502060028 51 77 3.0 8.0 0.00 0.00 0.00 24 1019.8
20260502055617 52 72 5.0 8.0 0.00 0.00 0.00 24 1019.5
20260502055504 51 61 5.0 8.0 0.00 0.00 0.00 24 1019.9
20260502055117 52 76 5.0 8.0 0.00 0.00 0.00 24 1019.5
20260502055025 51 85 3.0 8.0 0.00 0.00 0.00 24 1019.7
20260502054617 52 82 5.0 8.0 0.00 0.00 0.00 24 1019.3
20260502054544 51 82 4.0 8.0 0.00 0.00 0.00 24 1019.6
20260502054117 52 88 5.0 8.0 0.00 0.00 0.00 23 1019.3
20260502054059 51 80 4.0 8.0 0.00 0.00 0.00 23 1019.5
20260502053617 52 97 4.0 7.0 0.00 0.00 0.00 24 1019.3
20260502053509 52 96 6.0 7.0 0.00 0.00 0.00 24 1019.6
20260502053117 52 94 5.0 10.0 0.00 0.00 0.00 24 1019.4
20260502053027 52 90 4.0 10.0 0.00 0.00 0.00 24 1019.8
20260502052638 52 87 7.0 10.0 0.00 0.00 0.00 24 1019.4
20260502052546 52 96 4.0 10.0 0.00 0.00 0.00 24 1019.8
20260502052117 52 80 7.0 9.0 0.00 0.00 0.00 23 1019.4
20260502051617 52 79 5.0 9.0 0.00 0.00 0.00 24 1019.5
20260502051606 52 95 8.0 9.0 0.00 0.00 0.00 24 1019.8
20260502051117 53 91 5.0 9.0 0.00 0.00 0.00 23 1019.5
20260502051012 52 80 7.0 8.0 0.00 0.00 0.00 23 1019.8
20260502050638 52 106 4.0 7.0 0.00 0.00 0.00 22 1019.5
20260502050533 52 100 6.0 6.0 0.00 0.00 0.00 23 1019.9
20260502050117 52 111 4.0 7.0 0.00 0.00 0.00 23 1019.5
20260502045638 52 106 4.0 7.0 0.00 0.00 0.00 24 1019.5
20260502045525 52 109 4.0 7.0 0.00 0.00 0.00 23 1019.9
20260502045117 52 98 3.0 7.0 0.00 0.00 0.00 23 1019.5
20260502045043 52 101 2.0 6.0 0.00 0.00 0.00 23 1019.9
20260502044617 53 88 3.0 7.0 0.00 0.00 0.00 24 1019.5
20260502044117 53 79 4.0 7.0 0.00 0.00 0.00 23 1019.5
20260502043617 53 80 5.0 8.0 0.00 0.00 0.00 23 1019.5
20260502043601 52 94 4.0 8.0 0.00 0.00 0.00 23 1019.9
20260502043117 53 79 6.0 11.0 0.00 0.00 0.00 23 1019.5
20260502043010 52 70 5.0 11.0 0.00 0.00 0.00 23 1019.8
20260502042638 53 81 7.0 11.0 0.00 0.00 0.00 23 1019.4
20260502042514 52 75 7.0 11.0 0.00 0.00 0.00 23 1019.9
20260502042117 52 84 6.0 11.0 0.00 0.00 0.00 23 1019.4
20260502042035 52 80 7.0 10.0 0.00 0.00 0.00 23 1019.8
20260502041617 52 83 5.0 8.0 0.00 0.00 0.00 22 1019.4
20260502041555 52 80 5.0 8.0 0.00 0.00 0.00 23 1019.8
20260502041117 52 82 5.0 8.0 0.00 0.00 0.00 21 1019.3
20260502041000 52 74 3.0 8.0 0.00 0.00 0.00 22 1019.7
20260502040617 53 77 6.0 9.0 0.00 0.00 0.00 21 1019.3
20260502040117 53 76 6.0 9.0 0.00 0.00 0.00 20 1019.3
20260502040028 53 74 5.0 9.0 0.00 0.00 0.00 20 1019.7
20260502035617 53 76 6.0 8.0 0.00 0.00 0.00 20 1019.4
20260502035502 53 80 8.0 8.0 0.00 0.00 0.00 20 1019.6
20260502035117 53 77 6.0 9.0 0.00 0.00 0.00 20 1019.4
20260502034617 53 78 7.0 9.0 0.00 0.00 0.00 19 1019.4
20260502034117 53 75 6.0 9.0 0.00 0.00 0.00 19 1019.2
20260502034020 52 76 4.0 9.0 0.00 0.00 0.00 18 1019.4
20260502033638 53 73 6.0 9.0 0.00 0.00 0.00 18 1019.2
20260502033538 53 76 5.0 9.0 0.00 0.00 0.00 18 1019.5
20260502033138 53 73 6.0 9.0 0.00 0.00 0.00 19 1019.2
20260502033058 53 78 5.0 9.0 0.00 0.00 0.00 18 1019.6
20260502032617 54 75 6.0 9.0 0.00 0.00 0.00 18 1019.2
20260502032502 53 77 7.0 9.0 0.00 0.00 0.00 18 1019.5
20260502032117 54 75 5.0 9.0 0.00 0.00 0.00 18 1019.2
20260502032022 53 82 7.0 9.0 0.00 0.00 0.00 18 1019.5
20260502031617 54 75 5.0 8.0 0.00 0.00 0.00 18 1019.2
20260502031543 54 74 5.0 8.0 0.00 0.00 0.00 18 1019.3
20260502031117 54 75 5.0 8.0 0.00 0.00 0.00 18 1019.0
20260502031057 54 78 5.0 8.0 0.00 0.00 0.00 18 1019.4
20260502030617 54 74 5.0 8.0 0.00 0.00 0.00 18 1019.0
20260502030507 54 64 6.0 8.0 0.00 0.00 0.00 18 1019.4
20260502030138 55 77 4.0 7.0 0.00 0.00 0.00 18 1019.0
20260502030021 54 74 5.0 6.0 0.00 0.00 0.00 18 1019.3
20260502025617 55 76 4.0 7.0 0.00 0.00 0.00 18 1019.0
20260502025530 55 79 4.0 7.0 0.00 0.00 0.00 18 1019.3
20260502025138 56 72 4.0 7.0 0.00 0.00 0.00 18 1019.0
20260502025049 55 75 4.0 7.0 0.00 0.00 0.00 17 1019.4
20260502024638 57 68 4.0 7.0 0.00 0.00 0.00 18 1019.0
20260502024502 56 82 5.0 6.0 0.00 0.00 0.00 17 1019.2
20260502024117 58 62 2.0 5.0 0.00 0.00 0.00 16 1018.8
20260502024013 57 65 4.0 4.0 0.00 0.00 0.00 16 1019.2
20260502023617 58 49 1.0 3.0 0.00 0.00 0.00 16 1018.8
20260502023532 58 70 2.0 3.0 0.00 0.00 0.00 15 1019.1
20260502023117 59 307 0.0 2.0 0.00 0.00 0.00 16 1018.8
20260502023053 59 316 0.0 2.0 0.00 0.00 0.00 16 1019.3
20260502022617 60 294 0.0 2.0 0.00 0.00 0.00 14 1019.0
20260502022117 60 294 0.0 2.0 0.00 0.00 0.00 12 1019.0
20260502021617 60 294 1.0 2.0 0.00 0.00 0.00 12 1018.9
20260502021610 60 294 1.0 2.0 0.00 0.00 0.00 12 1019.3
20260502021138 61 297 1.0 3.0 0.00 0.00 0.00 13 1018.9
20260502021014 60 294 0.0 3.0 0.00 0.00 0.00 13 1019.4
20260502020617 61 301 2.0 3.0 0.00 0.00 0.00 13 1019.0
20260502020532 61 294 2.0 3.0 0.00 0.00 0.00 13 1019.4
20260502020117 62 295 2.0 5.0 0.00 0.00 0.00 12 1019.0
20260502015638 62 285 3.0 6.0 0.00 0.00 0.00 11 1019.1
20260502015514 62 286 3.0 5.0 0.00 0.00 0.00 10 1019.4
20260502015117 63 287 4.0 8.0 0.00 0.00 0.00 10 1018.9
20260502015034 62 290 4.0 8.0 0.00 0.00 0.00 9 1019.3
20260502014617 63 285 4.0 8.0 0.00 0.00 0.00 11 1018.9
20260502014138 64 282 4.0 8.0 0.00 0.00 0.00 9 1018.9
20260502013617 65 293 4.0 8.0 0.00 0.00 0.00 9 1018.9
20260502013557 64 273 4.0 8.0 0.00 0.00 0.00 9 1019.1
20260502013138 65 300 4.0 9.0 0.00 0.00 0.00 11 1018.9
20260502013054 65 319 3.0 9.0 0.00 0.00 0.00 10 1019.1
20260502012617 66 304 5.0 10.0 0.00 0.00 0.00 11 1018.9
20260502012501 66 295 2.0 10.0 0.00 0.00 0.00 10 1019.2
20260502012117 66 298 6.0 10.0 0.00 0.00 0.00 10 1019.0
20260502012019 66 309 5.0 10.0 0.00 0.00 0.00 10 1019.2
20260502011617 66 288 6.0 10.0 0.00 0.00 0.00 11 1019.0
20260502011541 66 303 7.0 10.0 0.00 0.00 0.00 10 1019.2
20260502011117 66 291 7.0 11.0 0.00 0.00 0.00 9 1019.0
20260502011059 66 302 5.0 11.0 0.00 0.00 0.00 9 1019.2
20260502010617 67 301 7.0 11.0 0.00 0.00 0.00 8 1018.9
20260502010506 66 305 8.0 11.0 0.00 0.00 0.00 8 1019.3
20260502010117 67 300 6.0 11.0 0.00 0.00 0.00 10 1018.9
20260502010027 67 303 7.0 11.0 0.00 0.00 0.00 10 1019.3
20260502005638 67 300 6.0 10.0 0.00 0.00 0.00 9 1019.0
20260502005117 67 310 6.0 13.0 0.00 0.00 0.00 10 1019.0
20260502005053 67 278 7.0 13.0 0.00 0.00 0.00 12 1019.2
20260502004617 68 308 7.0 13.0 0.00 0.00 0.00 12 1019.0
20260502004504 67 291 7.0 12.0 0.00 0.00 0.00 11 1019.3
20260502004117 67 312 6.0 10.0 0.00 0.00 0.00 11 1019.0
20260502004020 67 300 8.0 12.0 0.00 0.00 0.00 10 1019.1
20260502003617 67 312 7.0 13.0 0.00 0.00 0.00 11 1019.0
20260502003536 67 300 3.0 13.0 0.00 0.00 0.00 11 1019.3
20260502003117 68 310 8.0 13.0 0.00 0.00 0.00 10 1019.0
20260502003057 67 298 8.0 13.0 0.00 0.00 0.00 10 1019.3
20260502002638 68 322 7.0 12.0 0.00 0.00 0.00 11 1019.0
20260502002502 67 283 8.0 12.0 0.00 0.00 0.00 12 1019.3
20260502002117 68 315 8.0 13.0 0.00 0.00 0.00 11 1019.0
20260502002022 67 329 10.0 13.0 0.00 0.00 0.00 11 1019.5
20260502001617 68 302 7.0 13.0 0.00 0.00 0.00 12 1019.0
20260502001541 67 325 6.0 13.0 0.00 0.00 0.00 12 1019.3
20260502001117 68 311 8.0 13.0 0.00 0.00 0.00 11 1019.0
20260502001059 68 267 8.0 13.0 0.00 0.00 0.00 11 1019.3
20260502000638 68 311 8.0 14.0 0.00 0.00 0.00 12 1018.8
20260502000506 68 326 6.0 14.0 0.00 0.00 0.00 13 1019.4
20260502000117 68 317 8.0 14.0 0.00 0.00 0.00 11 1018.8
20260502000027 68 304 7.0 14.0 0.00 0.00 0.00 11 1019.2
20260501235617 68 317 7.0 13.0 0.00 0.00 0.00 13 1018.9
20260501235552 68 327 9.0 13.0 0.00 0.00 0.00 13 1019.2
20260501235117 68 310 6.0 12.0 0.00 0.00 0.00 11 1019.0
20260501234958 68 292 7.0 12.0 0.00 0.00 0.00 11 1019.3
20260501234617 68 311 6.0 12.0 0.00 0.00 0.00 12 1019.0
20260501234521 68 299 8.0 12.0 0.00 0.00 0.00 12 1019.3
20260501234117 68 312 6.0 12.0 0.00 0.00 0.00 12 1019.0
20260501234036 68 284 7.0 12.0 0.00 0.00 0.00 13 1019.4
20260501233617 68 297 6.0 12.0 0.00 0.00 0.00 14 1019.0
20260501233554 68 24 2.0 12.0 0.00 0.00 0.00 14 1019.3
20260501233117 68 281 6.0 12.0 0.00 0.00 0.00 12 1019.0
20260501233005 67 294 8.0 12.0 0.00 0.00 0.00 13 1019.3
20260501232617 68 290 7.0 13.0 0.00 0.00 0.00 12 1019.0
20260501232117 69 308 6.0 13.0 0.00 0.00 0.00 12 1019.0
20260501232029 68 296 11.0 13.0 0.00 0.00 0.00 14 1019.2
20260501231617 69 329 6.0 12.0 0.00 0.00 0.00 15 1019.0
20260501231550 68 294 4.0 12.0 0.00 0.00 0.00 14 1019.3
20260501231117 69 324 6.0 12.0 0.00 0.00 0.00 15 1019.0
20260501231106 68 5 5.0 12.0 0.00 0.00 0.00 15 1019.3
20260501230638 68 325 5.0 10.0 0.00 0.00 0.00 15 1019.0
20260501230515 68 312 5.0 10.0 0.00 0.00 0.00 16 1019.4
20260501230117 68 318 4.0 9.0 0.00 0.00 0.00 15 1019.2
20260501230033 67 355 2.0 9.0 0.00 0.00 0.00 14 1019.4
20260501225617 68 306 5.0 14.0 0.00 0.00 0.00 14 1019.3
20260501225500 67 275 6.0 12.0 0.00 0.00 0.00 14 1019.6
20260501225117 67 295 6.0 14.0 0.00 0.00 0.00 16 1019.3
20260501225018 67 311 2.0 14.0 0.00 0.00 0.00 17 1019.6
20260501224638 67 290 7.0 14.0 0.00 0.00 0.00 14 1019.2
20260501224538 66 302 11.0 14.0 0.00 0.00 0.00 15 1019.6
20260501224117 67 282 7.0 14.0 0.00 0.00 0.00 15 1019.2
20260501224041 66 319 4.0 14.0 0.00 0.00 0.00 14 1019.6
20260501223617 67 259 7.0 13.0 0.00 0.00 0.00 16 1019.2
20260501223559 66 256 3.0 13.0 0.00 0.00 0.00 15 1019.5
20260501223117 67 273 8.0 14.0 0.00 0.00 0.00 16 1019.5
20260501223009 67 244 8.0 14.0 0.00 0.00 0.00 17 1019.6
20260501222617 67 286 7.0 14.0 0.00 0.00 0.00 16 1019.5
20260501222526 67 325 11.0 14.0 0.00 0.00 0.00 16 1019.8
20260501222117 67 275 5.0 17.0 0.00 0.00 0.00 17 1019.5
20260501222045 67 209 5.0 17.0 0.00 0.00 0.00 17 1019.8
20260501221617 67 245 4.0 17.0 0.00 0.00 0.00 15 1019.5
20260501221601 67 342 16.0 17.0 0.00 0.00 0.00 15 1019.8
20260501221117 67 251 5.0 11.0 0.00 0.00 0.00 18 1019.5
20260501221010 66 256 3.0 11.0 0.00 0.00 0.00 19 1019.8
20260501220617 66 279 7.0 11.0 0.00 0.00 0.00 17 1019.5
20260501220527 66 225 5.0 11.0 0.00 0.00 0.00 16 1019.9
20260501220044 66 288 5.0 11.0 0.00 0.00 0.00 19 1019.9
20260501215117 66 259 7.0 15.0 0.00 0.00 0.00 17 1020.0
20260501215056 65 233 7.0 12.0 0.00 0.00 0.00 17 1020.1
20260501214617 66 243 7.0 14.0 0.00 0.00 0.00 17 1020.2
20260501214506 65 227 8.0 15.0 0.00 0.00 0.00 17 1020.1
20260501214117 66 246 6.0 14.0 0.00 0.00 0.00 17 1020.2
20260501214022 66 234 10.0 12.0 0.00 0.00 0.00 19 1020.1
20260501213617 66 262 6.0 12.0 0.00 0.00 0.00 19 1020.2
20260501213539 65 249 4.0 12.0 0.00 0.00 0.00 20 1020.3
20260501213117 66 264 7.0 12.0 0.00 0.00 0.00 19 1020.2
20260501213046 65 257 9.0 12.0 0.00 0.00 0.00 18 1020.4
20260501212617 66 259 5.0 12.0 0.00 0.00 0.00 18 1020.2
20260501212600 65 275 3.0 12.0 0.00 0.00 0.00 18 1020.6
20260501212117 66 18 5.0 12.0 0.00 0.00 0.00 18 1020.2
20260501212011 66 221 4.0 11.0 0.00 0.00 0.00 18 1020.5
20260501211617 66 347 7.0 14.0 0.00 0.00 0.00 17 1020.2
20260501211528 66 73 4.0 14.0 0.00 0.00 0.00 17 1020.6
20260501211117 67 339 7.0 14.0 0.00 0.00 0.00 18 1020.2
20260501211106 66 28 2.0 14.0 0.00 0.00 0.00 18 1020.5
20260501210617 66 344 5.0 12.0 0.00 0.00 0.00 20 1020.2
20260501210138 66 329 6.0 14.0 0.00 0.00 0.00 21 1020.3
20260501205638 66 316 5.0 14.0 0.00 0.00 0.00 20 1020.3
20260501205511 66 347 5.0 14.0 0.00 0.00 0.00 19 1020.5
20260501205117 66 319 4.0 13.0 0.00 0.00 0.00 21 1020.3
20260501205029 65 278 6.0 13.0 0.00 0.00 0.00 20 1020.6
20260501204617 66 303 6.0 13.0 0.00 0.00 0.00 21 1020.3
20260501204549 65 309 10.0 13.0 0.00 0.00 0.00 21 1020.7
20260501204117 65 302 6.0 11.0 0.00 0.00 0.00 21 1020.3
20260501203959 65 310 4.0 11.0 0.00 0.00 0.00 19 1020.7
20260501203617 65 307 6.0 11.0 0.00 0.00 0.00 24 1020.3
20260501203514 65 331 9.0 11.0 0.00 0.00 0.00 23 1020.8
20260501203117 65 314 5.0 11.0 0.00 0.00 0.00 21 1020.5
20260501203036 65 283 6.0 11.0 0.00 0.00 0.00 21 1020.8
20260501202638 65 315 6.0 10.0 0.00 0.00 0.00 18 1020.5
20260501202551 65 297 3.0 10.0 0.00 0.00 0.00 20 1020.8
20260501202117 65 314 6.0 14.0 0.00 0.00 0.00 24 1020.5
20260501202004 64 281 7.0 14.0 0.00 0.00 0.00 21 1020.8
20260501201617 65 322 6.0 14.0 0.00 0.00 0.00 21 1020.5
20260501201524 64 321 3.0 14.0 0.00 0.00 0.00 22 1020.8
20260501201117 64 317 6.0 12.0 0.00 0.00 0.00 24 1020.6
20260501201020 64 321 9.0 12.0 0.00 0.00 0.00 21 1020.8
20260501200617 64 316 4.0 12.0 0.00 0.00 0.00 21 1020.6
20260501200540 63 304 5.0 12.0 0.00 0.00 0.00 22 1021.0
20260501200117 63 342 5.0 12.0 0.00 0.00 0.00 21 1020.6
20260501195617 64 343 6.0 12.0 0.00 0.00 0.00 23 1020.7
20260501195557 63 15 5.0 12.0 0.00 0.00 0.00 23 1021.0
20260501195117 64 327 5.0 12.0 0.00 0.00 0.00 23 1020.7
20260501195005 63 38 1.0 12.0 0.00 0.00 0.00 24 1021.1
20260501194617 63 297 5.0 12.0 0.00 0.00 0.00 23 1020.7
20260501194524 63 322 8.0 12.0 0.00 0.00 0.00 22 1021.0
20260501194117 63 282 6.0 12.0 0.00 0.00 0.00 22 1020.8
20260501194017 63 294 2.0 12.0 0.00 0.00 0.00 20 1021.0
20260501193617 64 307 7.0 16.0 0.00 0.00 0.00 21 1020.8
20260501193535 63 279 8.0 15.0 0.00 0.00 0.00 20 1020.9
20260501193117 64 321 9.0 16.0 0.00 0.00 0.00 25 1020.8
20260501193056 63 316 5.0 16.0 0.00 0.00 0.00 25 1021.0
20260501192617 63 308 6.0 15.0 0.00 0.00 0.00 25 1020.7
20260501192117 63 282 5.0 12.0 0.00 0.00 0.00 23 1020.7
20260501192006 62 325 10.0 12.0 0.00 0.00 0.00 23 1021.1
20260501191617 63 295 5.0 10.0 0.00 0.00 0.00 22 1020.7
20260501191525 62 263 1.0 10.0 0.00 0.00 0.00 21 1021.1
20260501191138 63 328 6.0 13.0 0.00 0.00 0.00 23 1021.0
20260501191017 62 279 4.0 13.0 0.00 0.00 0.00 22 1021.2
20260501190617 63 334 5.0 13.0 0.00 0.00 0.00 24 1021.0
20260501190537 62 10 4.0 13.0 0.00 0.00 0.00 22 1021.2
20260501190117 62 293 6.0 12.0 0.00 0.00 0.00 24 1021.0
20260501190100 62 26 6.0 12.0 0.00 0.00 0.00 24 1021.4